Terminal Aerodrome Forecast
Issued by NWS Upton, NY

Current Version | Previous Version | Text Only | Print | Product List | Glossary On
Versions: 1 2 3 4 5 6 7 8 9 10 11 12 13 14 15 16 17 18 19 20 21 22 23 24 25 26 27 28 29 30 31 32 33 34 35 36
000
FTUS41 KOKX 232000 AAB
TAFLGA
TAF AMD
KLGA 232043Z 2321/2418 34019G28KT P6SM VCSH SCT015 BKN025 OVC040
      TEMPO 2321/2323 SCT025 OVC040
     FM232300 34019G28KT P6SM BKN040 BKN080
     FM240500 33016G22KT P6SM BKN050 BKN080
     FM241400 32014G21KT P6SM BKN050=

USA.gov is the U.S. government's official web portal to all federal, state and local government web resources and services.